createdAt,value
2023-12-01T00:00:47.667Z,98466.42
2023-12-01T00:03:15.270Z,98466.59
2023-12-01T00:05:42.830Z,98461.48
2023-12-01T00:08:10.389Z,98467.91
2023-12-01T00:10:38.044Z,98476.36
2023-12-01T00:13:05.618Z,98481.41
2023-12-01T00:15:33.202Z,98474.65
2023-12-01T00:18:00.867Z,98473.77
2023-12-01T00:20:28.624Z,98471.38
2023-12-01T00:22:56.250Z,98472.52
2023-12-01T00:25:23.810Z,98487.35
2023-12-01T00:27:51.518Z,98496.97
2023-12-01T00:30:19.234Z,98499.80
2023-12-01T00:32:46.834Z,98500.96
2023-12-01T00:35:14.965Z,98495.35
2023-12-01T00:37:42.622Z,98493.11
2023-12-01T00:40:10.214Z,98499.99
2023-12-01T00:42:37.988Z,98511.77
2023-12-01T00:45:05.649Z,98496.48
2023-12-01T00:47:33.314Z,98496.42
2023-12-01T00:50:01.166Z,98503.52
2023-12-01T00:52:28.802Z,98507.90
2023-12-01T00:54:56.167Z,98496.23
2023-12-01T00:57:24.126Z,98481.50
2023-12-01T00:59:51.700Z,98480.29
2023-12-01T01:02:19.345Z,98488.53
2023-12-01T01:04:47.070Z,98485.11
2023-12-01T01:07:14.769Z,98489.92
2023-12-01T01:09:42.445Z,98498.94
2023-12-01T01:12:09.982Z,98496.51
2023-12-01T01:14:37.659Z,98498.28
2023-12-01T01:17:05.257Z,98502.48
2023-12-01T01:19:32.968Z,98498.93
2023-12-01T01:22:00.831Z,98491.84
2023-12-01T01:24:28.395Z,98487.64
2023-12-01T01:26:55.961Z,98475.70
2023-12-01T01:29:23.611Z,98470.49
2023-12-01T01:31:51.289Z,98477.42
2023-12-01T01:34:21.276Z,98482.39
2023-12-01T01:36:51.157Z,98465.20
2023-12-01T01:39:18.928Z,98450.70
2023-12-01T01:41:46.525Z,98444.11
2023-12-01T01:44:14.501Z,98461.60
2023-12-01T01:46:42.152Z,98486.84
2023-12-01T01:49:09.841Z,98491.34
2023-12-01T01:51:37.519Z,98500.96
2023-12-01T01:54:05.144Z,98511.77
2023-12-01T01:56:32.834Z,98503.36
2023-12-01T01:59:00.464Z,98501.70
2023-12-01T02:01:28.253Z,98505.40
2023-12-01T02:03:56.425Z,98504.88
2023-12-01T02:06:24.059Z,98504.17
2023-12-01T02:08:51.615Z,98510.36
2023-12-01T02:11:19.283Z,98508.55
2023-12-01T02:13:46.845Z,98499.27
2023-12-01T02:16:14.462Z,98495.55
2023-12-01T02:18:42.278Z,98510.07
2023-12-01T02:21:09.946Z,98513.99
2023-12-01T02:23:37.505Z,98515.02
2023-12-01T02:26:05.150Z,98498.80
2023-12-01T02:28:32.712Z,98493.54
2023-12-01T02:31:00.434Z,98496.69
2023-12-01T02:33:28.233Z,98484.34
2023-12-01T02:35:55.807Z,98495.75
2023-12-01T02:38:23.480Z,98532.50
2023-12-01T02:40:51.966Z,98529.92
2023-12-01T02:43:20.093Z,98515.36
2023-12-01T02:45:48.402Z,98512.45
2023-12-01T02:48:16.151Z,98513.12
2023-12-01T02:50:43.817Z,98512.09
2023-12-01T02:53:11.473Z,98519.79
2023-12-01T02:55:39.158Z,98518.56
2023-12-01T02:58:06.755Z,98524.39
2023-12-01T03:00:34.527Z,98523.72
2023-12-01T03:03:02.113Z,98523.38
2023-12-01T03:05:29.992Z,98524.73
2023-12-01T03:07:57.640Z,98526.91
2023-12-01T03:10:25.249Z,98514.58
2023-12-01T03:12:52.818Z,98521.80
2023-12-01T03:15:20.564Z,98526.48
2023-12-01T03:17:48.332Z,98516.98
2023-12-01T03:20:16.005Z,98505.65
2023-12-01T03:22:43.717Z,98508.00
2023-12-01T03:25:11.746Z,98512.89
2023-12-01T03:27:39.407Z,98510.88
2023-12-01T03:30:07.121Z,98513.24
2023-12-01T03:32:34.884Z,98509.71
2023-12-01T03:35:02.433Z,98504.19
2023-12-01T03:37:30.036Z,98490.88
2023-12-01T03:39:57.689Z,98495.60
2023-12-01T03:42:25.327Z,98502.52
2023-12-01T03:44:52.872Z,98501.84
2023-12-01T03:47:20.339Z,98500.54
2023-12-01T03:49:48.210Z,98493.36
2023-12-01T03:52:15.863Z,98505.55
2023-12-01T03:54:43.462Z,98518.55
2023-12-01T03:57:11.085Z,98522.45
2023-12-01T03:59:38.738Z,98517.27
2023-12-01T04:02:06.457Z,98505.98
2023-12-01T04:04:34.285Z,98502.76
2023-12-01T04:07:02.086Z,98502.86
2023-12-01T04:09:30.095Z,98492.70
2023-12-01T04:11:57.731Z,98510.88
2023-12-01T04:14:25.415Z,98507.88
2023-12-01T04:16:53.014Z,98514.70
2023-12-01T04:19:20.642Z,98511.23
2023-12-01T04:21:48.240Z,98502.70
2023-12-01T04:24:15.858Z,98515.92
2023-12-01T04:26:43.424Z,98531.33
2023-12-01T04:29:10.991Z,98527.16
2023-12-01T04:31:38.924Z,98514.87
2023-12-01T04:34:06.636Z,98513.76
2023-12-01T04:36:34.284Z,98505.86
2023-12-01T04:39:01.944Z,98493.75
2023-12-01T04:41:29.492Z,98496.97
2023-12-01T04:43:57.152Z,98506.78
2023-12-01T04:46:24.929Z,98520.98
2023-12-01T04:48:52.714Z,98527.73
2023-12-01T04:51:20.455Z,98526.25
2023-12-01T04:53:48.414Z,98519.86
2023-12-01T04:56:16.001Z,98509.41
2023-12-01T04:58:43.530Z,98514.79
2023-12-01T05:01:11.238Z,98514.07
2023-12-01T05:03:38.951Z,98523.85
2023-12-01T05:06:06.624Z,98537.35
2023-12-01T05:08:34.275Z,98538.55
2023-12-01T05:11:02.246Z,98539.58
2023-12-01T05:13:29.910Z,98536.55
2023-12-01T05:15:57.530Z,98534.42
2023-12-01T05:18:25.380Z,98533.45
2023-12-01T05:20:53.203Z,98537.88
2023-12-01T05:23:20.985Z,98538.73
2023-12-01T05:25:48.727Z,98545.32
2023-12-01T05:28:16.348Z,98557.81
2023-12-01T05:30:44.181Z,98558.82
2023-12-01T05:33:12.280Z,98556.28
2023-12-01T05:35:39.986Z,98555.80
2023-12-01T05:38:07.642Z,98561.73
2023-12-01T05:40:35.340Z,98564.95
2023-12-01T05:43:02.994Z,98559.22
2023-12-01T05:45:30.632Z,98560.05
2023-12-01T05:47:58.531Z,98570.52
2023-12-01T05:50:26.290Z,98570.19
2023-12-01T05:52:54.225Z,98569.01
2023-12-01T05:55:23.849Z,98566.64
2023-12-01T05:57:51.864Z,98567.00
2023-12-01T06:00:19.592Z,98570.23
2023-12-01T06:02:47.373Z,98559.59
2023-12-01T06:05:15.206Z,98560.79
2023-12-01T06:07:42.780Z,98561.45
2023-12-01T06:10:10.678Z,98559.94
2023-12-01T06:12:38.695Z,98554.88
2023-12-01T06:15:06.463Z,98564.99
2023-12-01T06:17:34.044Z,98570.20
2023-12-01T06:20:01.688Z,98569.34
2023-12-01T06:22:29.262Z,98568.14
2023-12-01T06:24:56.929Z,98574.74
2023-12-01T06:27:24.559Z,98580.98
2023-12-01T06:29:52.239Z,98582.86
2023-12-01T06:32:19.880Z,98583.08
2023-12-01T06:34:47.542Z,98578.73
2023-12-01T06:37:15.555Z,98575.86
2023-12-01T06:39:43.220Z,98576.38
2023-12-01T06:42:10.940Z,98571.98
2023-12-01T06:44:38.494Z,98563.05
2023-12-01T06:47:06.250Z,98567.33
2023-12-01T06:49:33.981Z,98567.54
2023-12-01T06:52:01.588Z,98573.14
2023-12-01T06:54:29.403Z,98580.41
2023-12-01T06:56:57.416Z,98580.95
2023-12-01T06:59:24.978Z,98583.52
2023-12-01T07:01:52.724Z,98578.97
2023-12-01T07:04:20.469Z,98576.09
2023-12-01T07:06:48.187Z,98575.95
2023-12-01T07:09:15.929Z,98571.58
2023-12-01T07:11:43.496Z,98567.52
2023-12-01T07:14:11.254Z,98572.57
2023-12-01T07:16:39.316Z,98576.14
2023-12-01T07:19:07.040Z,98580.39
2023-12-01T07:21:34.648Z,98575.05
2023-12-01T07:24:02.617Z,98565.80
2023-12-01T07:26:30.279Z,98563.98
2023-12-01T07:28:57.838Z,98562.17
2023-12-01T07:31:25.501Z,98568.13
2023-12-01T07:33:53.278Z,98566.82
2023-12-01T07:36:25.878Z,98566.55
2023-12-01T07:39:00.665Z,98567.80
2023-12-01T07:41:28.325Z,98573.95
2023-12-01T07:43:55.884Z,98575.19
2023-12-01T07:46:23.623Z,98578.46
2023-12-01T07:48:51.495Z,98579.19
2023-12-01T07:51:19.072Z,98583.13
2023-12-01T07:53:46.742Z,98580.11
2023-12-01T07:56:14.602Z,98581.16
2023-12-01T07:58:42.255Z,98595.06
2023-12-01T08:01:09.857Z,98598.46
2023-12-01T08:03:37.647Z,98592.89
2023-12-01T08:06:05.464Z,98588.49
2023-12-01T08:08:33.119Z,98593.41
2023-12-01T08:11:07.842Z,98598.84
2023-12-01T08:13:35.537Z,98591.41
2023-12-01T08:16:03.657Z,98602.29
2023-12-01T08:18:31.541Z,98615.02
2023-12-01T08:20:59.337Z,98612.14
2023-12-01T08:23:27.324Z,98616.89
2023-12-01T08:25:55.042Z,98618.92
2023-12-01T08:28:22.689Z,98630.09
2023-12-01T08:30:51.144Z,98633.99
2023-12-01T08:33:18.868Z,98638.41
2023-12-01T08:35:46.553Z,98648.92
2023-12-01T08:38:14.467Z,98654.36
2023-12-01T08:40:43.658Z,98653.88
2023-12-01T08:43:12.051Z,98659.14
2023-12-01T08:45:39.730Z,98657.77
2023-12-01T08:48:07.498Z,98658.80
2023-12-01T08:50:35.161Z,98654.91
2023-12-01T08:53:02.892Z,98643.73
2023-12-01T08:55:30.594Z,98640.02
2023-12-01T08:57:58.516Z,98645.44
2023-12-01T09:00:28.125Z,98654.10
2023-12-01T09:02:55.929Z,98671.41
2023-12-01T09:05:23.577Z,98674.13
2023-12-01T09:07:51.317Z,98680.23
2023-12-01T09:10:18.978Z,98686.69
2023-12-01T09:12:46.636Z,98693.47
2023-12-01T09:15:14.314Z,98688.72
2023-12-01T09:17:42.359Z,98684.13
2023-12-01T09:20:10.138Z,98681.76
2023-12-01T09:22:37.802Z,98694.64
2023-12-01T09:25:07.829Z,98700.92
2023-12-01T09:27:37.187Z,98703.30
2023-12-01T09:30:06.334Z,98691.73
2023-12-01T09:32:34.194Z,98681.91
2023-12-01T09:35:01.635Z,98676.46
2023-12-01T09:37:29.217Z,98677.67
2023-12-01T09:39:57.786Z,98664.26
2023-12-01T09:42:25.864Z,98660.02
2023-12-01T09:44:53.642Z,98667.30
2023-12-01T09:47:21.390Z,98662.71
2023-12-01T09:49:49.176Z,98662.52
2023-12-01T09:52:16.906Z,98686.11
2023-12-01T09:55:06.642Z,98706.30
2023-12-01T09:57:32.381Z,98696.94
2023-12-01T10:00:00.184Z,98696.38
2023-12-01T10:02:29.613Z,98684.61
2023-12-01T10:04:58.089Z,98687.30
2023-12-01T10:07:26.113Z,98680.14
2023-12-01T10:09:53.780Z,98687.44
2023-12-01T10:12:21.331Z,98673.02
2023-12-01T10:14:48.978Z,98652.30
2023-12-01T10:17:16.753Z,98659.48
2023-12-01T10:19:44.341Z,98663.25
2023-12-01T10:22:11.881Z,98656.27
2023-12-01T10:24:39.538Z,98654.23
2023-12-01T10:27:07.139Z,98656.62
2023-12-01T10:29:34.858Z,98656.29
2023-12-01T10:32:03.002Z,98649.63
2023-12-01T10:34:30.714Z,98651.83
2023-12-01T10:36:58.658Z,98658.77
2023-12-01T10:39:26.364Z,98662.31
2023-12-01T10:41:55.153Z,98677.43
2023-12-01T10:44:23.998Z,98679.83
2023-12-01T10:46:51.575Z,98659.94
2023-12-01T10:49:19.542Z,98652.65
2023-12-01T10:51:47.094Z,98672.55
2023-12-01T10:54:14.578Z,98676.63
2023-12-01T10:56:42.230Z,98675.97
2023-12-01T10:59:09.974Z,98682.58
2023-12-01T11:01:37.710Z,98679.20
2023-12-01T11:04:05.457Z,98678.86
2023-12-01T11:06:33.193Z,98672.73
2023-12-01T11:09:01.094Z,98670.00
2023-12-01T11:11:28.916Z,98674.26
2023-12-01T11:13:56.807Z,98678.16
2023-12-01T11:16:24.421Z,98670.86
2023-12-01T11:18:52.159Z,98670.52
2023-12-01T11:21:20.097Z,98667.14
2023-12-01T11:23:47.835Z,98658.64
2023-12-01T11:26:15.482Z,98667.81
2023-12-01T11:28:43.281Z,98680.54
2023-12-01T11:31:10.899Z,98673.06
2023-12-01T11:33:38.567Z,98671.20
2023-12-01T11:36:06.377Z,98676.98
2023-12-01T11:38:33.994Z,98683.25
2023-12-01T11:41:01.853Z,98682.91
2023-12-01T11:43:37.765Z,98690.73
2023-12-01T11:46:06.208Z,98702.80
2023-12-01T11:48:34.044Z,98703.64
2023-12-01T11:51:01.823Z,98688.33
2023-12-01T11:53:29.402Z,98678.66
2023-12-01T11:55:57.057Z,98687.66
2023-12-01T11:58:24.702Z,98688.02
2023-12-01T12:00:52.512Z,98687.50
2023-12-01T12:03:20.438Z,98686.83
2023-12-01T12:05:48.368Z,98684.10
2023-12-01T12:08:16.167Z,98687.52
2023-12-01T12:10:43.752Z,98683.79
2023-12-01T12:13:11.305Z,98677.36
2023-12-01T12:15:39.081Z,98682.14
2023-12-01T12:18:07.210Z,98692.67
2023-12-01T12:20:35.141Z,98693.38
2023-12-01T12:23:02.862Z,98688.63
2023-12-01T12:25:30.650Z,98680.12
2023-12-01T12:27:58.377Z,98685.88
2023-12-01T12:30:26.364Z,98683.17
2023-12-01T12:32:54.144Z,98682.65
2023-12-01T12:35:22.317Z,98682.67
2023-12-01T12:37:49.941Z,98676.94
2023-12-01T12:40:17.505Z,98679.00
2023-12-01T12:42:45.165Z,98685.64
2023-12-01T12:45:12.768Z,98677.83
2023-12-01T12:47:40.440Z,98679.52
2023-12-01T12:50:08.052Z,98673.23
2023-12-01T12:52:35.807Z,98668.15
2023-12-01T12:55:03.162Z,98663.04
2023-12-01T12:57:31.168Z,98653.35
2023-12-01T12:59:58.954Z,98647.23
2023-12-01T13:02:26.675Z,98651.95
2023-12-01T13:04:54.222Z,98644.78
2023-12-01T13:07:21.875Z,98638.65
2023-12-01T13:09:49.544Z,98637.94
2023-12-01T13:12:17.260Z,98642.48
2023-12-01T13:14:45.013Z,98641.94
2023-12-01T13:17:12.624Z,98649.55
2023-12-01T13:19:40.419Z,98651.20
2023-12-01T13:22:08.353Z,98658.15
2023-12-01T13:24:36.107Z,98662.60
2023-12-01T13:27:03.812Z,98660.96
2023-12-01T13:29:31.653Z,98652.50
2023-12-01T13:31:59.447Z,98659.16
2023-12-01T13:34:27.181Z,98672.13
2023-12-01T13:36:54.835Z,98681.67
2023-12-01T13:39:22.591Z,98679.15
2023-12-01T13:41:50.698Z,98679.49
2023-12-01T13:44:18.739Z,98686.14
2023-12-01T13:46:46.534Z,98682.08
2023-12-01T13:49:14.374Z,98686.66
2023-12-01T13:51:42.067Z,98700.59
2023-12-01T13:54:09.728Z,98707.55
2023-12-01T13:56:37.350Z,98707.21
2023-12-01T13:59:04.915Z,98710.61
2023-12-01T14:01:32.629Z,98718.75
2023-12-01T14:04:00.813Z,98714.69
2023-12-01T14:06:28.636Z,98694.31
2023-12-01T14:08:56.284Z,98703.48
2023-12-01T14:11:23.838Z,98721.46
2023-12-01T14:13:51.509Z,98727.42
2023-12-01T14:16:19.172Z,98727.93
2023-12-01T14:18:46.801Z,98729.95
2023-12-01T14:21:14.784Z,98734.36
2023-12-01T14:23:42.496Z,98733.52
2023-12-01T14:26:10.321Z,98731.65
2023-12-01T14:28:37.882Z,98724.52
2023-12-01T14:31:05.541Z,98728.76
2023-12-01T14:33:33.303Z,98729.78
2023-12-01T14:36:01.146Z,98725.70
2023-12-01T14:38:28.950Z,98725.36
2023-12-01T14:40:56.588Z,98722.30
2023-12-01T14:43:24.219Z,98720.27
2023-12-01T14:45:52.351Z,98706.85
2023-12-01T14:48:20.334Z,98706.69
2023-12-01T14:50:48.176Z,98711.95
2023-12-01T14:53:15.826Z,98715.00
2023-12-01T14:55:43.487Z,98701.25
2023-12-01T14:58:11.250Z,98703.46
2023-12-01T15:00:38.917Z,98702.45
2023-12-01T15:03:06.686Z,98707.36
2023-12-01T15:05:34.457Z,98711.60
2023-12-01T15:08:02.022Z,98708.05
2023-12-01T15:10:29.655Z,98712.29
2023-12-01T15:12:57.232Z,98719.40
2023-12-01T15:15:24.954Z,98728.90
2023-12-01T15:17:52.616Z,98735.52
2023-12-01T15:20:20.419Z,98730.11
2023-12-01T15:22:47.991Z,98721.63
2023-12-01T15:25:15.938Z,98714.66
2023-12-01T15:27:43.696Z,98717.88
2023-12-01T15:30:11.397Z,98721.28
2023-12-01T15:32:39.036Z,98726.38
2023-12-01T15:35:06.472Z,98732.48
2023-12-01T15:37:34.035Z,98720.60
2023-12-01T15:40:01.658Z,98729.92
2023-12-01T15:42:29.598Z,98735.53
2023-12-01T15:44:57.387Z,98739.94
2023-12-01T15:47:24.984Z,98746.72
2023-12-01T15:49:52.645Z,98742.65
2023-12-01T15:52:20.517Z,98737.05
2023-12-01T15:54:48.176Z,98744.33
2023-12-01T15:57:15.770Z,98745.36
2023-12-01T15:59:43.548Z,98742.14
2023-12-01T16:02:11.398Z,98732.65
2023-12-01T16:04:39.022Z,98738.75
2023-12-01T16:07:06.586Z,98750.27
2023-12-01T16:09:34.244Z,98751.63
2023-12-01T16:12:02.149Z,98757.73
2023-12-01T16:14:29.876Z,98757.06
2023-12-01T16:16:57.558Z,98762.33
2023-12-01T16:19:25.282Z,98761.30
2023-12-01T16:21:53.033Z,98754.67
2023-12-01T16:24:25.329Z,98745.68
2023-12-01T16:26:56.079Z,98749.08
2023-12-01T16:29:23.716Z,98753.49
2023-12-01T16:31:51.286Z,98747.56
2023-12-01T16:34:19.163Z,98735.70
2023-12-01T16:36:53.475Z,98743.47
2023-12-01T16:39:22.245Z,98742.64
2023-12-01T16:41:50.040Z,98744.67
2023-12-01T16:44:17.710Z,98744.33
2023-12-01T16:46:45.337Z,98748.75
2023-12-01T16:49:13.108Z,98752.49
2023-12-01T16:51:40.862Z,98749.43
2023-12-01T16:54:08.469Z,98756.53
2023-12-01T16:56:36.208Z,98761.80
2023-12-01T16:59:03.876Z,98761.64
2023-12-01T17:01:31.636Z,98751.64
2023-12-01T17:03:59.306Z,98748.59
2023-12-01T17:06:27.193Z,98745.55
2023-12-01T17:08:54.816Z,98741.80
2023-12-01T17:11:22.474Z,98731.29
2023-12-01T17:13:50.242Z,98730.27
2023-12-01T17:16:17.994Z,98731.45
2023-12-01T17:18:45.716Z,98730.61
2023-12-01T17:21:13.477Z,98742.48
2023-12-01T17:23:41.185Z,98754.21
2023-12-01T17:26:08.741Z,98757.59
2023-12-01T17:28:36.298Z,98754.73
2023-12-01T17:31:03.899Z,98758.78
2023-12-01T17:33:31.681Z,98766.93
2023-12-01T17:35:59.824Z,98767.95
2023-12-01T17:38:27.562Z,98763.86
2023-12-01T17:40:55.221Z,98758.44
2023-12-01T17:43:22.887Z,98760.30
2023-12-01T17:45:50.742Z,98763.36
2023-12-01T17:48:18.569Z,98750.30
2023-12-01T17:50:46.402Z,98742.67
2023-12-01T17:53:14.147Z,98746.07
2023-12-01T17:55:42.119Z,98746.08
2023-12-01T17:58:09.771Z,98747.43
2023-12-01T18:00:37.561Z,98745.21
2023-12-01T18:03:05.338Z,98739.63
2023-12-01T18:05:33.069Z,98731.80
2023-12-01T18:08:00.839Z,98730.11
2023-12-01T18:10:28.383Z,98732.49
2023-12-01T18:12:56.042Z,98732.33
2023-12-01T18:15:24.082Z,98739.27
2023-12-01T18:17:51.919Z,98739.45
2023-12-01T18:20:19.650Z,98742.67
2023-12-01T18:22:47.629Z,98751.50
2023-12-01T18:25:15.275Z,98750.14
2023-12-01T18:27:43.873Z,98754.37
2023-12-01T18:30:11.550Z,98762.17
2023-12-01T18:32:42.339Z,98755.89
2023-12-01T18:35:09.943Z,98750.98
2023-12-01T18:37:37.471Z,98751.32
2023-12-01T18:40:05.452Z,98750.65
2023-12-01T18:42:33.203Z,98752.52
2023-12-01T18:45:01.082Z,98758.63
2023-12-01T18:47:28.735Z,98768.64
2023-12-01T18:49:56.439Z,98758.64
2023-12-01T18:52:23.957Z,98755.05
2023-12-01T18:54:51.617Z,98761.16
2023-12-01T18:57:19.300Z,98755.23
2023-12-01T18:59:46.956Z,98753.70
2023-12-01T19:02:14.797Z,98747.76
2023-12-01T19:04:42.596Z,98745.05
2023-12-01T19:07:10.256Z,98742.84
2023-12-01T19:09:37.808Z,98751.16
2023-12-01T19:12:05.503Z,98757.77
2023-12-01T19:14:33.213Z,98770.50
2023-12-01T19:17:00.879Z,98773.39
2023-12-01T19:19:28.633Z,98775.60
2023-12-01T19:21:56.425Z,98778.98
2023-12-01T19:24:24.419Z,98784.08
2023-12-01T19:26:52.158Z,98781.55
2023-12-01T19:29:19.803Z,98783.08
2023-12-01T19:31:47.449Z,98781.89
2023-12-01T19:34:15.176Z,98770.52
2023-12-01T19:36:42.887Z,98767.30
2023-12-01T19:39:16.736Z,98763.39
2023-12-01T19:41:44.446Z,98759.33
2023-12-01T19:44:12.005Z,98749.81
2023-12-01T19:46:39.678Z,98753.04
2023-12-01T19:49:07.265Z,98761.53
2023-12-01T19:51:34.995Z,98765.44
2023-12-01T19:54:02.581Z,98766.27
2023-12-01T19:56:30.219Z,98774.59
2023-12-01T19:58:57.883Z,98774.95
2023-12-01T20:01:25.552Z,98764.92
2023-12-01T20:03:53.192Z,98757.28
2023-12-01T20:06:21.039Z,98758.80
2023-12-01T20:08:48.755Z,98752.88
2023-12-01T20:11:16.501Z,98737.95
2023-12-01T20:13:44.056Z,98738.29
2023-12-01T20:16:11.804Z,98754.92
2023-12-01T20:18:39.525Z,98763.73
2023-12-01T20:21:07.368Z,98767.13
2023-12-01T20:23:35.115Z,98775.63
2023-12-01T20:26:03.068Z,98777.65
2023-12-01T20:28:30.624Z,98778.66
2023-12-01T20:30:58.387Z,98771.38
2023-12-01T20:33:26.126Z,98774.59
2023-12-01T20:35:53.932Z,98777.83
2023-12-01T20:38:21.469Z,98774.60
2023-12-01T20:40:49.150Z,98773.91
2023-12-01T20:43:16.707Z,98761.02
2023-12-01T20:45:44.363Z,98755.26
2023-12-01T20:48:12.317Z,98756.42
2023-12-01T20:50:40.084Z,98752.34
2023-12-01T20:53:07.712Z,98750.02
2023-12-01T20:55:35.512Z,98758.15
2023-12-01T20:58:03.175Z,98760.35
2023-12-01T21:00:30.757Z,98751.35
2023-12-01T21:02:58.529Z,98739.45
2023-12-01T21:05:26.533Z,98743.89
2023-12-01T21:07:54.234Z,98739.98
2023-12-01T21:10:21.805Z,98740.15
2023-12-01T21:12:49.352Z,98746.08
2023-12-01T21:15:17.051Z,98746.08
2023-12-01T21:17:44.749Z,98747.27
2023-12-01T21:20:12.530Z,98747.27
2023-12-01T21:22:40.208Z,98746.77
2023-12-01T21:25:07.780Z,98746.77
2023-12-01T21:27:35.453Z,98751.52
2023-12-01T21:30:03.537Z,98754.05
2023-12-01T21:32:31.282Z,98758.63
2023-12-01T21:34:58.811Z,98762.71
2023-12-01T21:37:26.485Z,98765.60
2023-12-01T21:39:54.138Z,98752.02
2023-12-01T21:42:21.989Z,98749.13
2023-12-01T21:44:49.793Z,98751.16
2023-12-01T21:47:17.527Z,98752.36
2023-12-01T21:49:45.241Z,98757.28
2023-12-01T21:52:12.851Z,98753.20
2023-12-01T21:54:40.572Z,98758.14
2023-12-01T21:57:08.329Z,98766.61
2023-12-01T21:59:36.041Z,98757.61
2023-12-01T22:02:03.618Z,98751.17
2023-12-01T22:04:31.272Z,98746.08
2023-12-01T22:06:58.816Z,98743.88
2023-12-01T22:09:26.413Z,98737.60
2023-12-01T22:11:54.453Z,98740.30
2023-12-01T22:14:22.108Z,98745.41
2023-12-01T22:16:49.885Z,98758.98
2023-12-01T22:19:17.848Z,98772.21
2023-12-01T22:21:45.715Z,98770.70
2023-12-01T22:24:13.275Z,98775.27
2023-12-01T22:26:40.930Z,98781.20
2023-12-01T22:29:08.595Z,98795.63
2023-12-01T22:31:36.261Z,98801.39
2023-12-01T22:34:04.138Z,98801.91
2023-12-01T22:36:31.791Z,98799.02
2023-12-01T22:38:59.602Z,98797.16
2023-12-01T22:41:27.316Z,98800.22
2023-12-01T22:43:56.180Z,98798.17
2023-12-01T22:46:24.882Z,98793.41
2023-12-01T22:48:52.578Z,98791.39
2023-12-01T22:51:20.321Z,98791.73
2023-12-01T22:53:47.888Z,98792.41
2023-12-01T22:56:15.633Z,98790.55
2023-12-01T22:58:43.207Z,98789.85
2023-12-01T23:01:10.857Z,98789.86
2023-12-01T23:03:38.537Z,98793.60
2023-12-01T23:06:06.444Z,98783.59
2023-12-01T23:08:34.267Z,98784.60
2023-12-01T23:11:01.988Z,98780.01
2023-12-01T23:13:30.091Z,98772.54
2023-12-01T23:15:57.808Z,98759.98
2023-12-01T23:18:25.690Z,98756.60
2023-12-01T23:20:53.682Z,98752.36
2023-12-01T23:23:21.490Z,98745.22
2023-12-01T23:25:49.097Z,98745.73
2023-12-01T23:28:16.937Z,98743.53
2023-12-01T23:30:44.741Z,98741.66
2023-12-01T23:33:12.706Z,98749.96
2023-12-01T23:35:44.928Z,98749.98
2023-12-01T23:38:13.397Z,98738.26
2023-12-01T23:40:41.021Z,98720.62
2023-12-01T23:43:08.663Z,98734.69
2023-12-01T23:45:36.292Z,98756.58
2023-12-01T23:48:04.238Z,98752.50
2023-12-01T23:50:31.961Z,98753.68
2023-12-01T23:52:59.628Z,98747.40
2023-12-01T23:55:27.205Z,98751.66
2023-12-01T23:57:57.736Z,98738.25
